Time;durP1;ratioP1;P1;durP2;ratioP2;P2;SDS_P1;SDS_P2;PMS_P1;PMS_P2;Temp;Humidity;BMP_temperature;BMP_pressure;BME280_temperature;BME280_humidity;BME280_pressure;Samples;Min_cycle;Max_cycle;Signal;HPM_P1;HPM_P2
2021/03/26 02:16:51;;;;;;;12.32;9.90;;;;;;;;;;1466384;22;20225;-87
2021/03/26 02:20:36;;;;;;;14.02;9.45;;;;;;;;;;5037935;28;20034;-87
2021/03/26 02:53:57;;;;;;;11.02;8.75;;;;;;;;;;5097584;28;20023;-89
2021/03/26 03:07:29;;;;;;;11.23;9.45;;;;;;;;;;815001;26;20326;-87
2021/03/26 03:10:40;;;;;;;13.70;10.18;;;;;;;;;;4974737;29;20032;-87
2021/03/26 03:14:24;;;;;;;12.20;9.38;;;;;;;;;;4892736;29;20065;-88
2021/03/26 03:17:31;;;;;;;16.10;10.85;;;;;;;;;;4886611;29;20026;-88
2021/03/26 03:24:05;;;;;;;12.07;9.73;;;;;;;;;;4884760;29;20081;-88
2021/03/26 03:30:16;;;;;;;;;;;;;;;;;;4868845;29;20066;-88
2021/03/26 03:49:43;;;;;;;13.02;10.77;;;;;;;;;;4936545;28;20039;-88
2021/03/26 03:57:22;;;;;;;12.60;9.85;;;;;;;;;;4846729;29;20040;-88
2021/03/26 04:00:43;;;;;;;10.75;9.32;;;;;;;;;;4848801;29;20092;-89
2021/03/26 04:04:32;;;;;;;13.75;9.70;;;;;;;;;;4830518;29;20022;-88
2021/03/26 04:07:56;;;;;;;12.88;10.15;;;;;;;;;;4830247;29;20080;-88
2021/03/26 04:11:38;;;;;;;12.68;10.52;;;;;;;;;;4819958;29;20023;-88
2021/03/26 04:21:40;;;;;;;12.85;9.55;;;;;;;;;;4811761;29;20026;-89
2021/03/26 04:24:52;;;;;;;12.90;9.60;;;;;;;;;;4785008;30;20073;-88
2021/03/26 04:28:19;;;;;;;11.43;9.60;;;;;;;;;;4843964;29;20021;-87
2021/03/26 04:31:19;;;;;;;12.50;9.80;;;;;;;;;;4889293;29;20028;-88
2021/03/26 04:34:26;;;;;;;13.63;10.80;;;;;;;;;;4857665;29;20065;-88
2021/03/26 04:44:53;;;;;;;20.73;11.50;;;;;;;;;;4838303;29;20087;-88
2021/03/26 04:48:13;;;;;;;15.40;11.50;;;;;;;;;;4831085;29;20022;-88
2021/03/26 04:51:42;;;;;;;15.02;11.13;;;;;;;;;;4828117;29;20015;-88
2021/03/26 04:55:09;;;;;;;19.42;13.48;;;;;;;;;;4792677;30;20018;-88
2021/03/26 04:59:04;;;;;;;17.23;13.35;;;;;;;;;;4810663;30;20042;-89
2021/03/26 05:02:23;;;;;;;18.02;12.88;;;;;;;;;;4828405;29;20043;-89
2021/03/26 05:05:36;;;;;;;11.82;9.55;;;;;;;;;;4828053;29;20082;-89
2021/03/26 05:11:51;;;;;;;12.70;9.70;;;;;;;;;;4835588;29;20043;-88
2021/03/26 05:18:46;;;;;;;18.73;12.45;;;;;;;;;;4810656;30;20145;-88
2021/03/26 05:22:37;;;;;;;15.57;12.80;;;;;;;;;;4840976;29;20102;-88
2021/03/26 05:26:04;;;;;;;15.52;12.00;;;;;;;;;;4888220;29;20292;-88
2021/03/26 05:29:17;;;;;;;15.80;11.93;;;;;;;;;;4958920;29;20046;-87
2021/03/26 05:36:13;;;;;;;11.80;10.30;;;;;;;;;;4945405;29;20034;-87
2021/03/26 05:39:35;;;;;;;13.43;10.57;;;;;;;;;;4868244;29;20141;-87
2021/03/26 05:42:19;;;;;;;13.40;11.18;;;;;;;;;;4878818;29;20041;-88
2021/03/26 05:45:06;;;;;;;15.13;11.57;;;;;;;;;;4884343;29;20274;-87
2021/03/26 05:48:05;;;;;;;15.65;11.18;;;;;;;;;;4896525;29;20045;-87
2021/03/26 05:51:04;;;;;;;15.68;11.45;;;;;;;;;;4879123;29;20045;-90
2021/03/26 05:54:05;;;;;;;17.02;10.65;;;;;;;;;;4915276;29;20023;-89
2021/03/26 05:56:59;;;;;;;14.38;10.80;;;;;;;;;;5122331;22;20123;-89
2021/03/26 05:59:50;;;;;;;17.45;11.68;;;;;;;;;;5081573;28;20044;-89
2021/03/26 06:02:56;;;;;;;15.88;10.95;;;;;;;;;;5078862;28;20035;-89
2021/03/26 06:06:06;;;;;;;13.30;10.93;;;;;;;;;;5092478;28;20518;-89
2021/03/26 06:09:09;;;;;;;15.90;10.50;;;;;;;;;;5080402;28;20024;-90
2021/03/26 06:12:31;;;;;;;14.65;10.30;;;;;;;;;;5090403;28;20028;-89
2021/03/26 06:19:02;;;;;;;;;;;;;;;;;;5018138;28;20042;-91
2021/03/26 06:25:28;;;;;;;14.65;11.65;;;;;;;;;;5017357;28;20045;-90
2021/03/26 06:28:46;;;;;;;18.48;11.73;;;;;;;;;;5001346;28;20118;-91
2021/03/26 06:34:56;;;;;;;15.88;11.77;;;;;;;;;;5226430;22;20545;-90
2021/03/26 06:45:36;;;;;;;16.55;11.65;;;;;;;;;;5044894;28;20036;-89
2021/03/26 06:48:48;;;;;;;14.13;11.25;;;;;;;;;;5060843;28;20027;-90
2021/03/26 07:27:21;;;;;;;17.33;11.13;;;;;;;;;;6017444;22;20057;-81
2021/03/26 07:30:04;;;;;;;15.88;11.70;;;;;;;;;;5006418;28;20079;-81
2021/03/26 07:32:45;;;;;;;21.20;12.30;;;;;;;;;;5011944;28;20099;-81
2021/03/26 07:35:49;;;;;;;13.90;10.95;;;;;;;;;;4986139;28;20038;-81
2021/03/26 07:38:33;;;;;;;15.93;11.43;;;;;;;;;;5006748;28;20053;-81
2021/03/26 07:41:36;;;;;;;13.23;11.40;;;;;;;;;;4997503;28;20089;-81
2021/03/26 07:44:15;;;;;;;16.30;11.02;;;;;;;;;;5006568;28;20129;-81
2021/03/26 07:47:19;;;;;;;12.95;11.02;;;;;;;;;;4969561;28;20050;-81
2021/03/26 07:50:13;;;;;;;14.23;10.80;;;;;;;;;;5006370;28;20113;-81
2021/03/26 07:52:54;;;;;;;17.10;11.50;;;;;;;;;;4966966;28;20042;-81
2021/03/26 07:56:01;;;;;;;14.27;11.00;;;;;;;;;;4973336;28;20018;-81
2021/03/26 07:59:11;;;;;;;12.82;10.20;;;;;;;;;;4912816;29;20088;-81
2021/03/26 08:02:17;;;;;;;17.73;11.32;;;;;;;;;;4888357;29;20068;-80
2021/03/26 08:04:56;;;;;;;15.80;10.73;;;;;;;;;;4909694;29;20052;-81
2021/03/26 08:07:46;;;;;;;17.30;11.85;;;;;;;;;;4928916;29;20432;-81
2021/03/26 08:10:20;;;;;;;17.10;13.77;;;;;;;;;;4952818;29;20031;-81
2021/03/26 08:13:04;;;;;;;23.55;15.95;;;;;;;;;;4929662;29;20071;-81
2021/03/26 08:15:50;;;;;;;17.67;13.80;;;;;;;;;;4945384;29;20518;-81
2021/03/26 08:18:28;;;;;;;19.92;14.95;;;;;;;;;;4929938;29;20095;-82
2021/03/26 08:20:59;;;;;;;24.50;15.73;;;;;;;;;;4929507;29;20055;-81
2021/03/26 08:24:09;;;;;;;35.33;18.92;;;;;;;;;;4928794;29;20067;-81
2021/03/26 08:26:54;;;;;;;25.70;15.43;;;;;;;;;;4867972;29;20544;-81
2021/03/26 08:29:44;;;;;;;24.67;15.25;;;;;;;;;;4853511;29;20442;-81
2021/03/26 08:32:39;;;;;;;25.65;14.02;;;;;;;;;;4852791;29;20101;-82
2021/03/26 08:35:38;;;;;;;15.20;12.50;;;;;;;;;;4899696;29;20040;-82
2021/03/26 08:38:33;;;;;;;20.38;11.95;;;;;;;;;;4953221;28;20039;-82
2021/03/26 08:41:31;;;;;;;26.95;12.65;;;;;;;;;;4961270;29;20042;-81
2021/03/26 08:43:58;;;;;;;19.88;11.30;;;;;;;;;;4945705;28;20071;-81
2021/03/26 08:46:39;;;;;;;15.15;10.98;;;;;;;;;;4945136;29;20050;-82
2021/03/26 08:49:04;;;;;;;;;;;;;;;;;;4950695;29;20112;-82
2021/03/26 08:51:54;;;;;;;16.85;12.13;;;;;;;;;;4941979;29;19942;-81
2021/03/26 08:54:31;;;;;;;17.85;12.07;;;;;;;;;;4926035;29;20028;-81
2021/03/26 08:57:21;;;;;;;16.83;10.45;;;;;;;;;;4941584;29;20548;-81
2021/03/26 09:00:07;;;;;;;9.73;6.85;;;;;;;;;;4940753;29;20031;-82
2021/03/26 09:03:10;;;;;;;9.32;4.57;;;;;;;;;;4965957;28;20053;-81
2021/03/26 09:05:38;;;;;;;6.13;4.90;;;;;;;;;;5063956;28;20363;-82
2021/03/26 09:08:57;;;;;;;7.28;5.10;;;;;;;;;;5043141;28;20470;-80
2021/03/26 09:11:42;;;;;;;8.45;5.03;;;;;;;;;;4975599;28;20038;-81
2021/03/26 09:14:33;;;;;;;7.22;5.07;;;;;;;;;;4977351;28;20027;-82
2021/03/26 09:17:16;;;;;;;9.70;5.45;;;;;;;;;;4920242;29;20044;-81
2021/03/26 09:19:50;;;;;;;7.25;4.78;;;;;;;;;;4919640;29;20050;-80
2021/03/26 09:22:25;;;;;;;10.02;6.00;;;;;;;;;;4916828;29;20460;-81
2021/03/26 09:24:50;;;;;;;9.13;6.57;;;;;;;;;;4919080;29;20043;-82
2021/03/26 09:27:23;;;;;;;8.80;5.97;;;;;;;;;;4919060;29;20518;-81
2021/03/26 09:30:12;;;;;;;9.48;5.97;;;;;;;;;;4919498;29;20036;-82
2021/03/26 09:32:48;;;;;;;10.05;5.68;;;;;;;;;;4900245;29;20439;-81
2021/03/26 09:35:31;;;;;;;9.35;6.18;;;;;;;;;;4900659;29;20227;-82
2021/03/26 09:38:00;;;;;;;10.40;5.63;;;;;;;;;;4904380;29;20541;-81
2021/03/26 09:40:26;;;;;;;8.10;5.93;;;;;;;;;;4917574;29;20107;-81
2021/03/26 09:43:30;;;;;;;9.35;5.80;;;;;;;;;;4918792;29;20056;-81
2021/03/26 09:45:59;;;;;;;9.70;5.88;;;;;;;;;;4958776;28;20038;-81
2021/03/26 09:48:49;;;;;;;10.57;5.78;;;;;;;;;;4969711;28;20069;-81
2021/03/26 09:51:17;;;;;;;8.15;6.10;;;;;;;;;;4993296;28;20145;-81
2021/03/26 09:53:43;;;;;;;9.63;6.00;;;;;;;;;;5016588;28;20043;-80
2021/03/26 09:56:31;;;;;;;10.10;6.47;;;;;;;;;;5035987;28;20067;-81
2021/03/26 09:59:22;;;;;;;9.50;6.13;;;;;;;;;;5017469;28;20036;-80
2021/03/26 10:02:11;;;;;;;7.55;5.55;;;;;;;;;;5019383;28;20379;-80
2021/03/26 10:04:39;;;;;;;10.63;6.20;;;;;;;;;;5034422;28;20055;-81
2021/03/26 10:07:34;;;;;;;8.10;6.50;;;;;;;;;;5004137;28;20486;-80
2021/03/26 10:12:48;;;;;;;11.02;7.03;;;;;;;;;;4949274;29;20135;-80
2021/03/26 10:15:35;;;;;;;9.00;6.95;;;;;;;;;;4952598;28;20560;-81
2021/03/26 10:18:15;;;;;;;10.85;6.60;;;;;;;;;;4927123;29;20039;-79
2021/03/26 10:20:45;;;;;;;7.95;6.72;;;;;;;;;;4924431;29;20584;-81
2021/03/26 10:23:35;;;;;;;9.68;6.85;;;;;;;;;;4923589;29;20529;-80
2021/03/26 10:26:18;;;;;;;10.60;6.35;;;;;;;;;;4953876;29;20042;-81
2021/03/26 10:28:44;;;;;;;7.88;6.18;;;;;;;;;;4954191;29;20051;-81
2021/03/26 10:31:16;;;;;;;11.15;6.55;;;;;;;;;;4953357;29;20523;-80
2021/03/26 10:33:50;;;;;;;14.57;7.13;;;;;;;;;;4952785;29;20066;-80
2021/03/26 10:36:54;;;;;;;7.90;6.70;;;;;;;;;;4929961;29;20031;-80
2021/03/26 10:39:31;;;;;;;11.40;9.20;;;;;;;;;;4898614;29;20123;-80
2021/03/26 10:42:06;;;;;;;11.70;7.32;;;;;;;;;;4894139;29;20055;-81
2021/03/26 10:44:40;;;;;;;12.65;8.50;;;;;;;;;;4880728;29;20518;-80
2021/03/26 10:47:20;;;;;;;13.15;9.43;;;;;;;;;;4936247;28;20405;-81
2021/03/26 10:49:51;;;;;;;14.73;9.80;;;;;;;;;;4969921;28;20558;-81
2021/03/26 10:52:22;;;;;;;13.98;10.35;;;;;;;;;;4984930;28;20496;-79
2021/03/26 10:55:02;;;;;;;;;;;;;;;;;;4992543;28;20056;-80
2021/03/26 10:57:38;;;;;;;16.80;11.43;;;;;;;;;;4993079;28;19909;-80
2021/03/26 11:00:42;;;;;;;17.25;11.13;;;;;;;;;;4986756;28;20138;-81
2021/03/26 11:03:50;;;;;;;38.28;14.13;;;;;;;;;;4967676;28;20042;-81
2021/03/26 11:06:29;;;;;;;15.23;12.52;;;;;;;;;;4991097;28;20319;-81
2021/03/26 11:09:05;;;;;;;20.60;12.90;;;;;;;;;;4973605;28;20026;-81
2021/03/26 11:11:39;;;;;;;21.05;14.95;;;;;;;;;;4989047;28;20087;-81
2021/03/26 11:14:23;;;;;;;18.95;14.10;;;;;;;;;;4986397;28;20120;-81
2021/03/26 11:17:13;;;;;;;19.33;13.60;;;;;;;;;;5027484;28;20487;-81
2021/03/26 11:20:19;;;;;;;20.55;14.95;;;;;;;;;;5034203;28;20116;-80
2021/03/26 11:23:10;;;;;;;18.95;13.93;;;;;;;;;;5012787;28;20025;-81
2021/03/26 11:25:41;;;;;;;17.52;14.77;;;;;;;;;;5031555;28;20102;-82
2021/03/26 11:28:28;;;;;;;19.15;14.93;;;;;;;;;;5000467;28;20543;-79
2021/03/26 11:30:56;;;;;;;20.88;16.40;;;;;;;;;;5019975;28;20033;-81
2021/03/26 11:33:48;;;;;;;23.15;17.55;;;;;;;;;;5037324;28;20021;-80
2021/03/26 11:36:36;;;;;;;24.75;18.23;;;;;;;;;;5039392;28;20025;-81
2021/03/26 11:39:13;;;;;;;21.35;17.08;;;;;;;;;;4938941;29;20031;-80
2021/03/26 11:42:17;;;;;;;24.30;18.88;;;;;;;;;;4942330;29;20261;-80
2021/03/26 11:44:46;;;;;;;22.83;17.73;;;;;;;;;;4920955;29;20533;-80
2021/03/26 11:47:30;;;;;;;20.80;16.50;;;;;;;;;;4949107;29;20031;-81
2021/03/26 11:49:59;;;;;;;22.42;15.20;;;;;;;;;;4925163;29;20106;-80
2021/03/26 11:52:24;;;;;;;19.08;14.18;;;;;;;;;;4947238;29;20425;-81
2021/03/26 11:55:13;;;;;;;22.55;15.73;;;;;;;;;;4939744;29;20023;-82
2021/03/26 11:58:07;;;;;;;18.40;13.35;;;;;;;;;;4875615;29;20076;-82
2021/03/26 12:00:33;;;;;;;19.48;13.23;;;;;;;;;;4792961;29;20051;-79
2021/03/26 12:03:21;;;;;;;17.17;13.32;;;;;;;;;;4785367;29;20050;-81
2021/03/26 12:06:11;;;;;;;22.88;12.18;;;;;;;;;;4792825;29;20096;-82
2021/03/26 12:09:13;;;;;;;17.70;12.63;;;;;;;;;;4819187;29;20053;-83
2021/03/26 12:12:16;;;;;;;15.00;11.57;;;;;;;;;;4811111;29;20106;-85
2021/03/26 12:15:26;;;;;;;18.52;12.10;;;;;;;;;;4816003;29;20420;-85
2021/03/26 12:20:48;;;;;;;17.60;11.68;;;;;;;;;;4285964;26;20036;-86
2021/03/26 12:24:21;;;;;;;18.75;12.80;;;;;;;;;;5054436;28;20040;-82
2021/03/26 12:27:34;;;;;;;16.25;11.73;;;;;;;;;;5000607;28;20042;-85
2021/03/26 12:31:21;;;;;;;15.27;11.48;;;;;;;;;;3232567;26;20058;-84
2021/03/26 12:34:04;;;;;;;16.95;11.48;;;;;;;;;;4968264;29;20078;-85
2021/03/26 12:37:20;;;;;;;13.85;10.70;;;;;;;;;;4977017;29;20055;-86
2021/03/26 19:45:30;;;;;;;14.15;11.60;;;;;;;;;;6228950;23;20031;-82
2021/03/26 19:48:45;;;;;;;19.33;16.90;;;;;;;;;;6230007;23;20016;-82
2021/03/26 19:51:21;;;;;;;16.90;13.40;;;;;;;;;;6256543;23;20030;-82
2021/03/26 19:54:20;;;;;;;17.40;13.50;;;;;;;;;;6230336;23;20031;-82
2021/03/26 19:57:26;;;;;;;14.73;12.23;;;;;;;;;;6259042;23;20323;-83
2021/03/26 20:00:43;;;;;;;14.60;11.82;;;;;;;;;;6257020;23;20018;-81
2021/03/26 20:03:21;;;;;;;15.55;11.55;;;;;;;;;;6107656;23;20058;-82
2021/03/26 20:06:09;;;;;;;15.10;12.00;;;;;;;;;;6135686;23;20016;-82
2021/03/26 20:09:12;;;;;;;17.80;13.02;;;;;;;;;;6134309;23;19998;-81
2021/03/26 20:12:05;;;;;;;14.77;11.07;;;;;;;;;;6131470;23;20009;-81
2021/03/26 20:14:58;;;;;;;17.63;12.65;;;;;;;;;;6017490;23;20003;-82
2021/03/26 20:17:55;;;;;;;18.10;12.80;;;;;;;;;;6017568;23;20003;-82
2021/03/26 20:20:33;;;;;;;17.23;12.73;;;;;;;;;;5961362;24;20035;-81
2021/03/26 20:23:12;;;;;;;15.27;12.75;;;;;;;;;;5937616;24;20008;-81
2021/03/26 20:26:13;;;;;;;16.02;11.25;;;;;;;;;;5960818;24;20015;-82
2021/03/26 20:29:31;;;;;;;15.63;12.02;;;;;;;;;;5904392;24;20006;-82
2021/03/26 20:32:30;;;;;;;16.88;13.00;;;;;;;;;;5905544;24;20425;-82
2021/03/26 20:35:26;;;;;;;16.67;11.15;;;;;;;;;;5905657;24;20044;-81
2021/03/26 20:37:54;;;;;;;14.77;12.70;;;;;;;;;;5927350;24;20028;-82
2021/03/26 20:40:42;;;;;;;12.88;10.85;;;;;;;;;;5959780;24;20030;-82
2021/03/26 20:43:34;;;;;;;14.52;10.55;;;;;;;;;;5962006;24;20008;-82
2021/03/26 20:46:22;;;;;;;13.43;11.00;;;;;;;;;;5962822;24;20005;-81
2021/03/26 20:49:15;;;;;;;15.25;10.05;;;;;;;;;;5940627;24;20448;-81
2021/03/26 20:51:59;;;;;;;36.72;28.75;;;;;;;;;;5997421;23;20071;-82
2021/03/26 20:54:41;;;;;;;21.88;19.05;;;;;;;;;;6016320;23;20011;-81
2021/03/26 20:57:10;;;;;;;23.75;19.85;;;;;;;;;;6073861;23;20006;-82
2021/03/26 21:00:05;;;;;;;14.35;11.98;;;;;;;;;;6107180;23;20014;-81
2021/03/26 21:02:55;;;;;;;20.25;18.15;;;;;;;;;;6105705;23;20018;-82
2021/03/26 21:05:44;;;;;;;13.57;10.55;;;;;;;;;;6154732;23;20055;-82
2021/03/26 21:08:40;;;;;;;13.38;9.85;;;;;;;;;;6139706;23;20011;-81
2021/03/26 21:11:21;;;;;;;13.52;9.68;;;;;;;;;;6135905;23;20005;-82
2021/03/26 21:14:21;;;;;;;16.38;10.30;;;;;;;;;;6136724;23;20002;-81
2021/03/26 21:17:00;;;;;;;14.43;10.02;;;;;;;;;;6134895;23;19998;-83
2021/03/26 21:19:36;;;;;;;12.77;9.20;;;;;;;;;;6132483;23;20006;-81
2021/03/26 21:22:12;;;;;;;12.73;9.98;;;;;;;;;;6110621;23;20002;-82
2021/03/26 21:24:41;;;;;;;13.63;9.93;;;;;;;;;;6110668;23;20069;-82
2021/03/26 21:27:46;;;;;;;14.82;10.38;;;;;;;;;;6111512;23;20010;-82
2021/03/26 21:30:40;;;;;;;17.25;10.52;;;;;;;;;;6134642;23;19997;-82
2021/03/26 21:33:34;;;;;;;15.90;10.57;;;;;;;;;;6134672;23;20001;-82
2021/03/26 21:36:32;;;;;;;12.25;9.57;;;;;;;;;;6135402;23;20006;-82
2021/03/26 21:39:36;;;;;;;13.43;10.10;;;;;;;;;;6048884;23;20007;-80
2021/03/26 21:42:40;;;;;;;14.98;10.48;;;;;;;;;;6047984;23;20498;-82
2021/03/26 21:45:20;;;;;;;29.13;25.98;;;;;;;;;;6048147;23;20015;-81
2021/03/26 21:48:40;;;;;;;12.30;10.85;;;;;;;;;;6074087;23;20006;-82
2021/03/26 21:51:44;;;;;;;11.93;10.13;;;;;;;;;;6047300;23;19999;-81
2021/03/26 21:54:40;;;;;;;16.23;11.13;;;;;;;;;;6047736;23;20003;-81
2021/03/26 21:57:24;;;;;;;14.73;10.85;;;;;;;;;;6048520;23;20064;-81
2021/03/26 22:00:12;;;;;;;15.35;11.05;;;;;;;;;;6047671;23;20032;-81
2021/03/26 22:03:11;;;;;;;14.63;10.70;;;;;;;;;;6047889;23;20086;-81
2021/03/26 22:05:42;;;;;;;16.98;12.75;;;;;;;;;;6026351;23;20003;-82
2021/03/26 22:08:48;;;;;;;15.02;11.32;;;;;;;;;;6047874;23;20011;-82
2021/03/26 22:11:21;;;;;;;15.43;13.50;;;;;;;;;;5962989;24;20005;-81
2021/03/26 22:14:15;;;;;;;23.88;18.35;;;;;;;;;;5917158;24;20009;-82
2021/03/26 22:17:17;;;;;;;22.75;17.70;;;;;;;;;;5962732;24;20659;-81
2021/03/26 22:20:02;;;;;;;;;;;;;;;;;;5931019;24;20456;-82
2021/03/26 22:22:54;;;;;;;20.45;12.13;;;;;;;;;;5961732;24;20116;-81
2021/03/26 22:25:25;;;;;;;12.35;9.82;;;;;;;;;;5963497;24;20014;-82
2021/03/26 22:27:57;;;;;;;12.13;9.35;;;;;;;;;;6044486;23;20017;-80
2021/03/26 22:31:00;;;;;;;11.70;9.02;;;;;;;;;;6059432;23;20003;-82
2021/03/26 22:33:54;;;;;;;13.50;10.13;;;;;;;;;;6086280;23;20029;-81
2021/03/26 22:36:34;;;;;;;13.43;9.70;;;;;;;;;;6085372;23;20006;-81
2021/03/26 22:39:12;;;;;;;12.80;9.77;;;;;;;;;;6090086;23;20006;-82
2021/03/26 22:42:06;;;;;;;16.33;9.43;;;;;;;;;;6106711;23;20018;-82
2021/03/26 22:44:53;;;;;;;14.00;9.80;;;;;;;;;;6090713;23;20002;-82
2021/03/26 22:47:38;;;;;;;11.40;8.70;;;;;;;;;;6116098;23;20010;-82
2021/03/26 22:50:22;;;;;;;11.50;9.27;;;;;;;;;;6202115;23;19997;-82
2021/03/26 22:53:23;;;;;;;14.05;10.52;;;;;;;;;;6201330;23;19993;-83
2021/03/26 22:56:12;;;;;;;18.88;14.27;;;;;;;;;;6200173;23;19997;-83
2021/03/26 22:59:20;;;;;;;14.88;11.45;;;;;;;;;;6176053;23;20007;-83
2021/03/26 23:01:47;;;;;;;13.82;11.25;;;;;;;;;;6082785;23;20082;-82
2021/03/26 23:04:26;;;;;;;14.52;11.68;;;;;;;;;;6058804;23;20122;-83
2021/03/26 23:07:12;;;;;;;13.85;11.55;;;;;;;;;;6056557;23;20002;-82
2021/03/26 23:10:05;;;;;;;20.90;12.75;;;;;;;;;;6060228;23;20003;-82
2021/03/26 23:12:39;;;;;;;14.13;12.63;;;;;;;;;;6062355;23;19999;-83
2021/03/26 23:15:36;;;;;;;18.85;12.93;;;;;;;;;;6039404;23;20043;-82
2021/03/26 23:18:44;;;;;;;17.05;13.43;;;;;;;;;;6063658;23;20042;-81
2021/03/26 23:21:13;;;;;;;15.25;13.68;;;;;;;;;;6001407;24;19996;-84
2021/03/26 23:24:09;;;;;;;18.15;14.13;;;;;;;;;;6002566;24;20589;-84
2021/03/26 23:26:45;;;;;;;17.23;14.20;;;;;;;;;;6002646;24;20004;-82
2021/03/26 23:29:22;;;;;;;16.15;13.60;;;;;;;;;;5978014;24;20028;-82
2021/03/26 23:32:10;;;;;;;16.52;13.60;;;;;;;;;;5994617;24;20011;-83
2021/03/26 23:34:43;;;;;;;20.05;13.07;;;;;;;;;;5996617;23;20037;-82
2021/03/26 23:37:24;;;;;;;17.13;13.15;;;;;;;;;;5974206;24;20011;-82
2021/03/26 23:40:04;;;;;;;15.90;13.23;;;;;;;;;;6057027;23;20473;-81
2021/03/26 23:45:44;;;;;;;15.57;13.80;;;;;;;;;;6107842;23;20142;-82
2021/03/26 23:48:21;;;;;;;16.48;13.93;;;;;;;;;;6090263;23;20010;-83
2021/03/26 23:51:20;;;;;;;17.65;14.60;;;;;;;;;;6112340;23;20002;-82
2021/03/26 23:53:50;;;;;;;17.42;15.57;;;;;;;;;;6031404;23;20032;-83
2021/03/26 23:56:34;;;;;;;17.85;15.18;;;;;;;;;;6018958;23;20037;-82
2021/03/26 23:59:15;;;;;;;18.27;15.50;;;;;;;;;;6113175;23;20022;-82
